PWSweather.com
Personal Weather Stations
Station Observations
KTXPLANO70
Kemper Estates, Plano, TX

Kemper EstatesPlano, TX

Lat: 33.0674, Lon: -96.7659

Elevation: 737

Station Type: Davis Vantage Pro2

http://www.dallasdawg.com

Latest ConditionsUpdated 2:30:01 AM CST Thursday, Dec 12, 2019
Currently Today's Max Today's Min Today's Average
Temperature 39.7°F4.3°C 41.2°F5.1°C 38.9°F3.8°C 40.5°F4.7°C
Dew Point 32.4°F0.2°C 33.7°F0.9°C 32.2°F0.1°C 32.9°F0.5°C
Winds Calm Calm 4.6 mph -7.4 kmh - - 1.8 mph 2.9 kmh
Wind Gusts -- 8.1 mph13.0 kmh - -
Humidity 75% 81% 72% 74%
Pressure 30.39 in1029.1 mb 30.43 in1030.5 mb 30.39 in1029.1 mb -
Hour Temp Dew Point Humidity Winds Wind Gusts Pressure Precip Precip Rate Daily Precip Total
02:30 AM 39.7°F4.3°C 32.4°F0.2°C 75% Calm Calm -- 30.39 in1029.1 mb - 0.00 in0.0 mm 0.00 in0.0 mm
02:25 AM 39.8°F4.3°C 32.2°F0.1°C 74% 2.3 mph ESE3.7 kmh ESE 3.5 mph5.6 kmh 30.39 in1029.1 mb - 0.00 in0.0 mm 0.00 in0.0 mm
02:20 AM 40.0°F4.4°C 32.4°F0.2°C 74% 1.2 mph SE1.9 kmh SE 3.5 mph5.6 kmh 30.39 in1029.1 mb - 0.00 in0.0 mm 0.00 in0.0 mm
02:15 AM 40.2°F4.6°C 32.6°F0.3°C 74% 1.2 mph ESE1.9 kmh ESE 1.2 mph1.9 kmh 30.39 in1029.1 mb - 0.00 in0.0 mm 0.00 in0.0 mm
02:10 AM 40.3°F4.6°C 32.7°F0.4°C 74% 2.3 mph SE3.7 kmh SE 3.5 mph5.6 kmh 30.39 in1029.1 mb - 0.00 in0.0 mm 0.00 in0.0 mm
02:00 AM 40.5°F4.7°C 32.5°F0.3°C 73% Calm Calm 3.5 mph5.6 kmh 30.39 in1029.1 mb - 0.00 in0.0 mm 0.00 in0.0 mm
01:55 AM 40.6°F4.8°C 32.3°F0.2°C 72% Calm Calm 3.5 mph5.6 kmh 30.39 in1029.1 mb - 0.00 in0.0 mm 0.00 in0.0 mm
01:50 AM 40.8°F4.9°C 32.5°F0.3°C 72% 1.2 mph SE1.9 kmh SE 3.5 mph5.6 kmh 30.39 in1029.1 mb - 0.00 in0.0 mm 0.00 in0.0 mm
01:45 AM 40.8°F4.9°C 32.5°F0.3°C 72% 1.2 mph SE1.9 kmh SE 4.6 mph7.4 kmh 30.39 in1029.1 mb - 0.00 in0.0 mm 0.00 in0.0 mm
01:40 AM 40.7°F4.8°C 32.3°F0.2°C 72% Calm Calm 1.2 mph1.9 kmh 30.39 in1029.1 mb - 0.00 in0.0 mm 0.00 in0.0 mm
01:35 AM 40.7°F4.8°C 32.4°F0.2°C 72% Calm Calm 2.3 mph3.7 kmh 30.39 in1029.1 mb - 0.00 in0.0 mm 0.00 in0.0 mm
01:30 AM 40.8°F4.9°C 32.5°F0.3°C 72% Calm Calm -- 30.40 in1029.5 mb - 0.00 in0.0 mm 0.00 in0.0 mm
01:25 AM 41.0°F5.0°C 32.7°F0.4°C 72% Calm Calm -- 30.40 in1029.5 mb - 0.00 in0.0 mm 0.00 in0.0 mm
01:20 AM 41.1°F5.1°C 32.8°F0.4°C 72% 1.2 mph SE1.9 kmh SE -- 30.40 in1029.5 mb - 0.00 in0.0 mm 0.00 in0.0 mm
01:15 AM 41.2°F5.1°C 32.9°F0.5°C 72% 1.2 mph SE1.9 kmh SE 4.6 mph7.4 kmh 30.40 in1029.5 mb - 0.00 in0.0 mm 0.00 in0.0 mm
01:10 AM 41.2°F5.1°C 32.9°F0.5°C 72% 2.3 mph SE3.7 kmh SE 4.6 mph7.4 kmh 30.40 in1029.5 mb - 0.00 in0.0 mm 0.00 in0.0 mm
01:00 AM 41.1°F5.1°C 33.1°F0.6°C 73% 3.5 mph SE5.6 kmh SE 6.9 mph11.1 kmh 30.41 in1029.8 mb - 0.00 in0.0 mm 0.00 in0.0 mm
12:55 AM 41.1°F5.1°C 33.1°F0.6°C 73% 2.3 mph ESE3.7 kmh ESE 3.5 mph5.6 kmh 30.41 in1029.8 mb - 0.00 in0.0 mm 0.00 in0.0 mm
12:50 AM 41.0°F5.0°C 33.3°F0.7°C 74% 3.5 mph SE5.6 kmh SE 6.9 mph11.1 kmh 30.41 in1029.8 mb - 0.00 in0.0 mm 0.00 in0.0 mm
12:45 AM 40.8°F4.9°C 33.2°F0.7°C 74% 4.6 mph SE7.4 kmh SE 8.1 mph13.0 kmh 30.42 in1030.1 mb - 0.00 in0.0 mm 0.00 in0.0 mm
12:40 AM 40.8°F4.9°C 33.5°F0.8°C 75% 4.6 mph SE7.4 kmh SE 5.8 mph9.3 kmh 30.42 in1030.1 mb - 0.00 in0.0 mm 0.00 in0.0 mm
12:35 AM 40.8°F4.9°C 33.5°F0.8°C 75% 4.6 mph SE7.4 kmh SE 8.1 mph13.0 kmh 30.42 in1030.1 mb - 0.00 in0.0 mm 0.00 in0.0 mm
12:30 AM 40.7°F4.8°C 33.4°F0.8°C 75% 3.5 mph ESE5.6 kmh ESE 6.9 mph11.1 kmh 30.42 in1030.1 mb - 0.00 in0.0 mm 0.00 in0.0 mm
12:25 AM 40.7°F4.8°C 33.4°F0.8°C 75% 3.5 mph SE5.6 kmh SE 6.9 mph11.1 kmh 30.42 in1030.1 mb - 0.00 in0.0 mm 0.00 in0.0 mm
12:20 AM 40.3°F4.6°C 33.4°F0.8°C 76% 2.3 mph ESE3.7 kmh ESE 6.9 mph11.1 kmh 30.42 in1030.1 mb - 0.00 in0.0 mm 0.00 in0.0 mm
12:15 AM 40.0°F4.4°C 33.4°F0.8°C 77% 2.3 mph ESE3.7 kmh ESE 8.1 mph13.0 kmh 30.42 in1030.1 mb - 0.00 in0.0 mm 0.00 in0.0 mm
12:10 AM 39.7°F4.3°C 33.7°F0.9°C 79% 1.2 mph SE1.9 kmh SE 3.5 mph5.6 kmh 30.42 in1030.1 mb - 0.00 in0.0 mm 0.00 in0.0 mm
12:00 AM 38.9°F3.8°C 33.6°F0.9°C 81% Calm Calm -- 30.43 in1030.5 mb - 0.00 in0.0 mm 0.00 in0.0 mm